createdAt,value
2022-08-25T00:00:12.570Z,38.89
2022-08-25T00:02:39.935Z,40.85
2022-08-25T00:05:08.090Z,38.93
2022-08-25T00:07:37.157Z,39.13
2022-08-25T00:10:05.973Z,40.03
2022-08-25T00:12:33.301Z,41.84
2022-08-25T00:15:00.934Z,39.43
2022-08-25T00:17:28.711Z,38.92
2022-08-25T00:19:55.985Z,39.27
2022-08-25T00:22:23.270Z,36.97
2022-08-25T00:24:50.526Z,40.12
2022-08-25T00:27:18.067Z,38.94
2022-08-25T00:29:45.528Z,38.56
2022-08-25T00:32:13.378Z,37.07
2022-08-25T00:34:40.728Z,36.15
2022-08-25T00:37:09.448Z,36.23
2022-08-25T00:39:37.577Z,35.66
2022-08-25T00:42:05.099Z,36.21
2022-08-25T00:44:39.289Z,36.95
2022-08-25T00:47:06.824Z,36.23
2022-08-25T00:49:53.276Z,35.20
2022-08-25T00:52:27.182Z,35.26
2022-08-25T00:54:57.306Z,35.52
2022-08-25T00:57:34.448Z,34.84
2022-08-25T01:00:07.272Z,34.85
2022-08-25T01:02:34.759Z,35.84
2022-08-25T01:05:02.355Z,37.96
2022-08-25T01:07:30.011Z,42.00
2022-08-25T01:09:57.290Z,41.14
2022-08-25T01:12:24.535Z,38.25
2022-08-25T01:14:51.805Z,36.48
2022-08-25T01:17:20.784Z,36.78
2022-08-25T01:19:48.031Z,36.51
2022-08-25T01:22:16.689Z,37.44
2022-08-25T01:24:53.405Z,36.12
2022-08-25T01:27:20.652Z,36.05
2022-08-25T01:29:48.004Z,36.38
2022-08-25T01:32:15.473Z,38.71
2022-08-25T01:34:43.712Z,35.47
2022-08-25T01:37:13.370Z,38.50
2022-08-25T01:39:41.185Z,37.01
2022-08-25T01:42:11.587Z,38.12
2022-08-25T01:44:42.123Z,38.10
2022-08-25T01:47:09.526Z,39.83
2022-08-25T01:49:37.115Z,40.07
2022-08-25T01:52:20.018Z,40.44
2022-08-25T01:54:48.766Z,38.37
2022-08-25T01:57:16.147Z,38.06
2022-08-25T01:59:43.567Z,38.31
2022-08-25T02:02:10.908Z,38.55
2022-08-25T02:04:39.553Z,37.00
2022-08-25T02:07:09.983Z,37.84
2022-08-25T02:09:37.354Z,38.59
2022-08-25T02:12:04.815Z,37.74
2022-08-25T02:14:32.121Z,39.85
2022-08-25T02:16:59.428Z,39.08
2022-08-25T02:19:26.962Z,39.89
2022-08-25T02:21:54.247Z,41.47
2022-08-25T02:24:21.511Z,40.88
2022-08-25T02:26:49.138Z,38.67
2022-08-25T02:29:16.971Z,39.95
2022-08-25T02:31:44.656Z,42.94
2022-08-25T02:34:12.365Z,47.35
2022-08-25T02:36:40.287Z,48.44
2022-08-25T02:39:08.448Z,44.31
2022-08-25T02:41:36.437Z,48.61
2022-08-25T02:44:04.027Z,45.92
2022-08-25T02:46:31.512Z,48.79
2022-08-25T02:48:59.002Z,50.07
2022-08-25T02:51:28.620Z,48.18
2022-08-25T02:53:57.566Z,51.57
2022-08-25T02:56:25.876Z,48.74
2022-08-25T02:58:53.297Z,49.77
2022-08-25T03:01:20.663Z,53.81
2022-08-25T03:03:49.702Z,53.99
2022-08-25T03:06:19.433Z,52.11
2022-08-25T03:08:47.174Z,53.00
2022-08-25T03:11:14.479Z,50.55
2022-08-25T03:13:42.371Z,51.22
2022-08-25T03:16:11.283Z,50.52
2022-08-25T03:18:40.779Z,46.34
2022-08-25T03:21:08.183Z,48.32
2022-08-25T03:23:35.713Z,47.19
2022-08-25T03:26:21.973Z,44.58
2022-08-25T03:28:49.271Z,45.49
2022-08-25T03:31:16.764Z,44.40
2022-08-25T03:33:44.101Z,43.91
2022-08-25T03:36:12.352Z,44.64
2022-08-25T03:38:39.998Z,43.31
2022-08-25T03:41:15.292Z,43.19
2022-08-25T03:43:42.748Z,44.31
2022-08-25T03:46:16.055Z,43.89
2022-08-25T03:48:43.537Z,42.13
2022-08-25T03:51:10.831Z,43.38
2022-08-25T03:53:38.954Z,45.01
2022-08-25T03:56:06.292Z,45.37
2022-08-25T03:58:33.577Z,43.57
2022-08-25T04:01:01.053Z,44.81
2022-08-25T04:03:28.348Z,43.44
2022-08-25T04:05:55.613Z,44.79
2022-08-25T04:08:23.811Z,43.76
2022-08-25T04:10:51.342Z,45.28
2022-08-25T04:13:18.716Z,43.44
2022-08-25T04:15:46.030Z,45.14
2022-08-25T04:18:16.041Z,44.96
2022-08-25T04:20:46.684Z,44.57
2022-08-25T04:23:14.266Z,44.16
2022-08-25T04:25:46.181Z,44.58
2022-08-25T04:28:13.599Z,45.15
2022-08-25T04:30:42.717Z,45.38
2022-08-25T04:33:10.413Z,43.67
2022-08-25T04:35:37.830Z,44.43
2022-08-25T04:38:06.919Z,44.90
2022-08-25T04:40:34.341Z,46.28
2022-08-25T04:43:01.637Z,44.80
2022-08-25T04:45:29.291Z,43.13
2022-08-25T04:48:00.899Z,44.98
2022-08-25T04:50:28.064Z,45.64
2022-08-25T04:52:55.416Z,44.87
2022-08-25T04:55:22.707Z,45.05
2022-08-25T04:57:50.001Z,44.48
2022-08-25T05:00:18.200Z,45.16
2022-08-25T05:02:45.570Z,43.82
2022-08-25T05:05:12.888Z,43.02
2022-08-25T05:07:41.519Z,43.37
2022-08-25T05:10:09.078Z,44.37
2022-08-25T05:12:36.475Z,44.41
2022-08-25T05:15:24.533Z,42.93
2022-08-25T05:17:55.843Z,44.74
2022-08-25T05:20:24.147Z,42.76
2022-08-25T05:22:51.546Z,41.92
2022-08-25T05:25:18.965Z,42.95
2022-08-25T05:27:46.208Z,43.95
2022-08-25T05:30:13.914Z,42.62
2022-08-25T05:32:41.289Z,42.70
2022-08-25T05:35:09.006Z,41.69
2022-08-25T05:37:38.000Z,42.62
2022-08-25T05:40:06.530Z,43.36
2022-08-25T05:42:34.471Z,42.37
2022-08-25T05:45:01.763Z,42.59
2022-08-25T05:47:29.604Z,40.52
2022-08-25T05:49:56.877Z,41.22
2022-08-25T05:52:27.697Z,40.67
2022-08-25T05:54:54.990Z,41.33
2022-08-25T05:57:22.275Z,41.38
2022-08-25T05:59:49.784Z,41.17
2022-08-25T06:02:35.561Z,40.02
2022-08-25T06:05:02.935Z,39.09
2022-08-25T06:07:30.270Z,39.93
2022-08-25T06:09:57.829Z,38.46
2022-08-25T06:12:25.384Z,38.77
2022-08-25T06:14:53.004Z,39.49
2022-08-25T06:17:20.446Z,38.61
2022-08-25T06:19:48.029Z,37.81
2022-08-25T06:22:15.267Z,38.59
2022-08-25T06:24:42.590Z,37.50
2022-08-25T06:27:09.822Z,37.40
2022-08-25T06:29:37.139Z,36.85
2022-08-25T06:32:05.845Z,37.03
2022-08-25T06:34:33.757Z,37.56
2022-08-25T06:37:01.313Z,36.06
2022-08-25T06:39:29.008Z,35.98
2022-08-25T06:41:56.545Z,36.77
2022-08-25T06:44:24.227Z,35.95
2022-08-25T06:46:51.589Z,35.92
2022-08-25T06:49:18.908Z,34.43
2022-08-25T06:51:46.339Z,34.64
2022-08-25T06:54:13.664Z,34.60
2022-08-25T06:56:41.745Z,34.11
2022-08-25T06:59:09.401Z,33.71
2022-08-25T07:01:37.471Z,33.96
2022-08-25T07:04:10.110Z,33.94
2022-08-25T07:06:40.911Z,33.12
2022-08-25T07:09:08.645Z,33.99
2022-08-25T07:11:36.719Z,32.64
2022-08-25T07:14:04.905Z,32.16
2022-08-25T07:16:32.310Z,32.12
2022-08-25T07:19:00.466Z,32.20
2022-08-25T07:21:33.207Z,32.62
2022-08-25T07:24:03.421Z,32.12
2022-08-25T07:26:37.772Z,31.88
2022-08-25T07:29:14.432Z,31.34
2022-08-25T07:31:41.778Z,31.57
2022-08-25T07:34:28.427Z,30.43
2022-08-25T07:36:56.057Z,30.45
2022-08-25T07:39:23.803Z,30.68
2022-08-25T07:41:51.991Z,30.40
2022-08-25T07:44:21.021Z,30.20
2022-08-25T07:46:48.692Z,29.97
2022-08-25T07:49:23.474Z,29.91
2022-08-25T07:52:04.544Z,29.57
2022-08-25T07:54:35.575Z,28.70
2022-08-25T07:57:07.336Z,29.32
2022-08-25T07:59:38.970Z,29.08
2022-08-25T08:02:18.056Z,28.71
2022-08-25T08:04:48.910Z,29.19
2022-08-25T08:07:18.296Z,28.53
2022-08-25T08:09:46.060Z,27.45
2022-08-25T08:12:16.561Z,27.88
2022-08-25T08:14:46.634Z,28.22
2022-08-25T08:17:14.170Z,27.64
2022-08-25T08:19:44.859Z,27.75
2022-08-25T08:22:15.585Z,27.66
2022-08-25T08:24:54.112Z,27.92
2022-08-25T08:27:22.294Z,27.43
2022-08-25T08:29:50.159Z,27.67
2022-08-25T08:32:18.542Z,26.89
2022-08-25T08:34:47.100Z,26.53
2022-08-25T08:37:21.267Z,27.18
2022-08-25T08:39:51.462Z,26.94
2022-08-25T08:42:31.080Z,26.38
2022-08-25T08:45:28.754Z,27.15
2022-08-25T08:48:20.530Z,26.19
2022-08-25T08:51:12.549Z,25.47
2022-08-25T08:54:00.995Z,25.20
2022-08-25T08:56:30.855Z,24.96
2022-08-25T08:59:03.853Z,24.09
2022-08-25T09:01:46.467Z,23.51
2022-08-25T09:04:30.533Z,22.73
2022-08-25T09:06:57.958Z,21.95
2022-08-25T09:09:26.331Z,21.88
2022-08-25T09:12:18.403Z,21.89
2022-08-25T09:15:01.859Z,21.51
2022-08-25T09:18:07.579Z,21.38
2022-08-25T09:20:47.003Z,21.37
2022-08-25T09:23:29.709Z,20.94
2022-08-25T09:26:45.252Z,21.91
2022-08-25T09:29:20.174Z,20.68
2022-08-25T09:31:48.580Z,21.41
2022-08-25T09:34:22.486Z,20.77
2022-08-25T09:36:52.894Z,20.88
2022-08-25T09:39:21.674Z,20.79
2022-08-25T09:42:00.189Z,20.88
2022-08-25T09:44:43.717Z,21.13
2022-08-25T09:47:23.184Z,21.60
2022-08-25T09:49:56.594Z,21.00
2022-08-25T09:52:34.300Z,20.51
2022-08-25T09:55:16.673Z,20.56
2022-08-25T09:57:45.258Z,20.67
2022-08-25T10:00:22.243Z,20.86
2022-08-25T10:03:05.945Z,20.84
2022-08-25T10:05:36.619Z,20.42
2022-08-25T10:08:10.737Z,20.49
2022-08-25T10:10:45.268Z,21.13
2022-08-25T10:13:22.906Z,20.42
2022-08-25T10:16:24.917Z,21.05
2022-08-25T10:19:09.215Z,20.48
2022-08-25T10:21:38.391Z,19.83
2022-08-25T10:24:07.153Z,20.04
2022-08-25T10:27:01.788Z,19.53
2022-08-25T10:30:00.961Z,19.66
2022-08-25T10:32:53.676Z,20.71
2022-08-25T10:35:41.135Z,19.69
2022-08-25T10:38:37.781Z,19.95
2022-08-25T10:41:24.718Z,20.30
2022-08-25T10:44:38.840Z,20.24
2022-08-25T10:47:18.004Z,20.06
2022-08-25T10:49:50.114Z,19.43
2022-08-25T10:52:23.460Z,19.12
2022-08-25T10:54:58.442Z,19.80
2022-08-25T10:57:52.739Z,19.45
2022-08-25T11:00:31.450Z,20.38
2022-08-25T11:03:14.557Z,20.40
2022-08-25T11:05:51.265Z,20.33
2022-08-25T11:08:37.886Z,20.34
2022-08-25T11:11:32.850Z,20.46
2022-08-25T11:14:15.849Z,20.30
2022-08-25T11:16:51.966Z,20.15
2022-08-25T11:19:33.676Z,20.32
2022-08-25T11:22:10.336Z,20.36
2022-08-25T11:24:57.066Z,20.43
2022-08-25T11:27:41.312Z,20.40
2022-08-25T11:30:11.631Z,20.15
2022-08-25T11:32:39.990Z,20.87
2022-08-25T11:35:10.017Z,21.27
2022-08-25T11:38:13.903Z,20.93
2022-08-25T11:40:52.806Z,20.56
2022-08-25T11:43:43.370Z,20.86
2022-08-25T11:46:10.498Z,20.79
2022-08-25T11:48:59.272Z,20.84
2022-08-25T11:51:36.535Z,20.63
2022-08-25T11:54:29.764Z,21.69
2022-08-25T11:56:59.067Z,21.11
2022-08-25T11:59:55.788Z,20.73
2022-08-25T12:02:40.181Z,20.69
2022-08-25T12:05:20.071Z,21.05
2022-08-25T12:07:47.538Z,20.55
2022-08-25T12:10:22.869Z,19.97
2022-08-25T12:13:01.208Z,20.12
2022-08-25T12:15:31.343Z,20.33
2022-08-25T12:18:16.804Z,20.24
2022-08-25T12:20:55.967Z,19.73
2022-08-25T12:23:32.270Z,20.03
2022-08-25T12:26:02.113Z,20.27
2022-08-25T12:28:35.074Z,21.11
2022-08-25T12:31:17.495Z,19.95
2022-08-25T12:34:03.459Z,19.89
2022-08-25T12:36:33.572Z,19.93
2022-08-25T12:39:24.578Z,20.84
2022-08-25T12:42:03.868Z,20.96
2022-08-25T12:44:40.308Z,21.50
2022-08-25T12:47:19.683Z,21.17
2022-08-25T12:49:51.517Z,21.12
2022-08-25T12:52:25.160Z,20.91
2022-08-25T12:54:59.838Z,21.39
2022-08-25T12:57:46.297Z,21.29
2022-08-25T13:00:55.856Z,20.79
2022-08-25T13:03:54.117Z,20.90
2022-08-25T13:06:29.328Z,20.76
2022-08-25T13:09:18.776Z,20.62
2022-08-25T13:11:55.218Z,20.21
2022-08-25T13:14:43.856Z,21.00
2022-08-25T13:17:11.860Z,20.86
2022-08-25T13:19:39.363Z,21.05
2022-08-25T13:22:16.568Z,21.31
2022-08-25T13:24:45.181Z,21.35
2022-08-25T13:27:22.922Z,21.02
2022-08-25T13:29:55.741Z,20.97
2022-08-25T13:32:35.586Z,20.55
2022-08-25T13:35:19.958Z,21.30
2022-08-25T13:37:48.294Z,21.81
2022-08-25T13:40:24.743Z,22.21
2022-08-25T13:43:03.157Z,22.45
2022-08-25T13:45:34.680Z,21.44
2022-08-25T13:48:20.975Z,21.17
2022-08-25T13:50:52.141Z,20.90
2022-08-25T13:53:25.319Z,20.81
2022-08-25T13:56:00.730Z,21.07
2022-08-25T13:58:44.799Z,21.27
2022-08-25T14:01:22.596Z,21.11
2022-08-25T14:04:22.577Z,21.29
2022-08-25T14:07:05.497Z,21.46
2022-08-25T14:10:03.978Z,21.27
2022-08-25T14:12:46.499Z,21.37
2022-08-25T14:15:16.853Z,21.48
2022-08-25T14:17:49.097Z,21.92
2022-08-25T14:20:23.776Z,22.34
2022-08-25T14:22:58.241Z,21.76
2022-08-25T14:25:27.842Z,22.18
2022-08-25T14:28:07.723Z,22.55
2022-08-25T14:30:36.920Z,22.19
2022-08-25T14:33:04.388Z,23.04
2022-08-25T14:35:31.882Z,22.90
2022-08-25T14:38:03.337Z,23.05
2022-08-25T14:40:34.490Z,23.44
2022-08-25T14:43:02.200Z,23.89
2022-08-25T14:45:30.360Z,24.35
2022-08-25T14:48:01.971Z,24.17
2022-08-25T14:50:29.988Z,24.47
2022-08-25T14:52:59.666Z,24.72
2022-08-25T14:55:31.609Z,25.25
2022-08-25T14:57:59.990Z,25.16
2022-08-25T15:00:27.305Z,24.87
2022-08-25T15:02:55.377Z,24.68
2022-08-25T15:05:28.377Z,24.84
2022-08-25T15:08:14.413Z,25.00
2022-08-25T15:10:43.371Z,24.72
2022-08-25T15:13:11.046Z,24.67
2022-08-25T15:15:52.613Z,24.89
2022-08-25T15:18:21.606Z,25.22
2022-08-25T15:20:50.171Z,25.55
2022-08-25T15:23:18.803Z,25.03
2022-08-25T15:25:47.407Z,25.21
2022-08-25T15:28:17.311Z,25.77
2022-08-25T15:30:45.917Z,25.37
2022-08-25T15:33:14.147Z,25.12
2022-08-25T15:35:41.617Z,25.75
2022-08-25T15:38:10.797Z,26.19
2022-08-25T15:40:39.872Z,26.26
2022-08-25T15:43:07.447Z,27.11
2022-08-25T15:45:36.219Z,26.40
2022-08-25T15:48:07.394Z,26.67
2022-08-25T15:50:38.640Z,27.15
2022-08-25T15:53:08.282Z,26.81
2022-08-25T15:55:41.037Z,26.25
2022-08-25T15:58:08.891Z,26.72
2022-08-25T16:00:37.831Z,26.65
2022-08-25T16:03:07.965Z,26.50
2022-08-25T16:05:37.304Z,26.68
2022-08-25T16:08:05.102Z,26.55
2022-08-25T16:10:36.793Z,26.64
2022-08-25T16:13:06.978Z,26.89
2022-08-25T16:15:36.191Z,26.27
2022-08-25T16:18:04.749Z,26.27
2022-08-25T16:20:33.079Z,26.53
2022-08-25T16:23:02.762Z,27.01
2022-08-25T16:25:31.738Z,27.03
2022-08-25T16:27:59.111Z,26.64
2022-08-25T16:30:26.654Z,26.61
2022-08-25T16:32:54.424Z,26.49
2022-08-25T16:35:22.430Z,27.42
2022-08-25T16:37:49.767Z,27.04
2022-08-25T16:40:19.033Z,27.44
2022-08-25T16:42:47.371Z,27.32
2022-08-25T16:45:14.679Z,27.03
2022-08-25T16:47:43.501Z,27.11
2022-08-25T16:50:11.144Z,27.18
2022-08-25T16:52:58.343Z,27.32
2022-08-25T16:55:29.086Z,26.83
2022-08-25T16:58:07.682Z,26.98
2022-08-25T17:00:36.579Z,27.03
2022-08-25T17:03:04.995Z,27.50
2022-08-25T17:05:33.404Z,27.40
2022-08-25T17:08:19.228Z,27.64
2022-08-25T17:10:47.139Z,26.86
2022-08-25T17:13:14.485Z,26.90
2022-08-25T17:15:43.290Z,26.66
2022-08-25T17:18:11.583Z,27.10
2022-08-25T17:20:42.129Z,26.93
2022-08-25T17:23:11.970Z,26.82
2022-08-25T17:25:42.918Z,27.17
2022-08-25T17:28:11.952Z,26.96
2022-08-25T17:30:40.393Z,27.32
2022-08-25T17:33:08.139Z,26.97
2022-08-25T17:35:42.541Z,27.75
2022-08-25T17:38:10.053Z,27.18
2022-08-25T17:40:38.347Z,27.01
2022-08-25T17:43:09.197Z,27.39
2022-08-25T17:45:39.182Z,27.42
2022-08-25T17:48:08.759Z,27.23
2022-08-25T17:50:37.423Z,27.18
2022-08-25T17:53:06.693Z,27.42
2022-08-25T17:55:34.299Z,27.80
2022-08-25T17:58:04.876Z,27.15
2022-08-25T18:00:36.424Z,27.17
2022-08-25T18:03:06.749Z,27.31
2022-08-25T18:05:36.602Z,27.26
2022-08-25T18:08:05.492Z,27.39
2022-08-25T18:10:39.143Z,27.26
2022-08-25T18:13:07.090Z,27.42
2022-08-25T18:15:34.797Z,27.51
2022-08-25T18:18:04.500Z,27.13
2022-08-25T18:20:32.243Z,27.44
2022-08-25T18:22:59.549Z,27.03
2022-08-25T18:25:28.035Z,26.96
2022-08-25T18:27:56.946Z,27.23
2022-08-25T18:30:24.387Z,27.44
2022-08-25T18:32:53.738Z,27.45
2022-08-25T18:35:21.890Z,27.21
2022-08-25T18:38:12.385Z,27.20
2022-08-25T18:40:40.206Z,27.30
2022-08-25T18:43:08.947Z,27.17
2022-08-25T18:45:42.979Z,27.36
2022-08-25T18:48:10.427Z,27.21
2022-08-25T18:50:39.492Z,27.50
2022-08-25T18:53:07.206Z,27.67
2022-08-25T18:55:34.914Z,27.71
2022-08-25T18:58:02.491Z,27.96
2022-08-25T19:00:30.489Z,28.10
2022-08-25T19:02:59.547Z,28.08
2022-08-25T19:05:33.037Z,28.16
2022-08-25T19:08:01.338Z,28.00
2022-08-25T19:10:30.931Z,28.40
2022-08-25T19:12:58.259Z,28.30
2022-08-25T19:15:29.828Z,28.59
2022-08-25T19:17:57.465Z,28.54
2022-08-25T19:20:25.105Z,28.70
2022-08-25T19:22:53.080Z,28.75
2022-08-25T19:25:20.657Z,28.74
2022-08-25T19:27:48.431Z,28.86
2022-08-25T19:30:16.899Z,28.86
2022-08-25T19:32:45.016Z,29.15
2022-08-25T19:35:32.026Z,29.16
2022-08-25T19:38:00.069Z,28.92
2022-08-25T19:40:28.237Z,29.19
2022-08-25T19:42:56.059Z,29.25
2022-08-25T19:45:23.935Z,29.40
2022-08-25T19:47:51.784Z,29.69
2022-08-25T19:50:20.870Z,29.54
2022-08-25T19:52:49.923Z,29.11
2022-08-25T19:55:17.554Z,29.69
2022-08-25T19:57:45.997Z,29.93
2022-08-25T20:00:25.202Z,29.91
2022-08-25T20:02:52.879Z,29.28
2022-08-25T20:05:23.787Z,29.18
2022-08-25T20:07:52.065Z,29.71
2022-08-25T20:10:19.925Z,29.71
2022-08-25T20:12:47.798Z,29.62
2022-08-25T20:15:16.498Z,29.78
2022-08-25T20:17:45.048Z,29.53
2022-08-25T20:20:14.421Z,30.20
2022-08-25T20:22:41.890Z,30.15
2022-08-25T20:25:14.388Z,29.75
2022-08-25T20:27:44.020Z,29.52
2022-08-25T20:30:14.717Z,29.77
2022-08-25T20:32:45.700Z,29.79
2022-08-25T20:35:14.387Z,29.42
2022-08-25T20:37:43.943Z,29.99
2022-08-25T20:40:16.194Z,29.59
2022-08-25T20:42:44.473Z,29.68
2022-08-25T20:45:13.075Z,30.03
2022-08-25T20:47:41.129Z,30.43
2022-08-25T20:50:09.568Z,29.80
2022-08-25T20:52:39.206Z,30.24
2022-08-25T20:55:11.046Z,30.31
2022-08-25T20:57:39.213Z,29.74
2022-08-25T21:00:07.155Z,30.24
2022-08-25T21:02:34.924Z,30.24
2022-08-25T21:05:02.243Z,29.90
2022-08-25T21:07:29.767Z,30.97
2022-08-25T21:09:57.984Z,30.70
2022-08-25T21:12:26.115Z,30.97
2022-08-25T21:14:54.766Z,30.20
2022-08-25T21:17:22.363Z,31.17
2022-08-25T21:19:49.654Z,30.83
2022-08-25T21:22:17.013Z,31.11
2022-08-25T21:24:45.036Z,30.38
2022-08-25T21:27:12.511Z,31.62
2022-08-25T21:29:44.747Z,32.20
2022-08-25T21:32:23.417Z,31.89
2022-08-25T21:34:54.552Z,32.08
2022-08-25T21:37:22.008Z,31.16
2022-08-25T21:39:49.780Z,31.91
2022-08-25T21:42:17.230Z,30.57
2022-08-25T21:44:44.870Z,31.87
2022-08-25T21:47:12.143Z,31.68
2022-08-25T21:49:39.586Z,30.90
2022-08-25T21:52:06.961Z,31.02
2022-08-25T21:54:34.265Z,32.35
2022-08-25T21:57:04.495Z,31.97
2022-08-25T21:59:34.214Z,31.87
2022-08-25T22:02:03.779Z,31.63
2022-08-25T22:04:32.124Z,31.96
2022-08-25T22:07:00.280Z,32.14
2022-08-25T22:09:28.155Z,32.14
2022-08-25T22:11:55.965Z,31.45
2022-08-25T22:14:23.893Z,31.64
2022-08-25T22:16:54.524Z,31.47
2022-08-25T22:19:22.680Z,32.17
2022-08-25T22:21:50.896Z,32.61
2022-08-25T22:24:18.842Z,32.40
2022-08-25T22:26:47.628Z,32.86
2022-08-25T22:29:24.943Z,32.95
2022-08-25T22:31:59.991Z,32.06
2022-08-25T22:34:34.335Z,32.17
2022-08-25T22:37:03.589Z,32.49
2022-08-25T22:39:31.829Z,32.79
2022-08-25T22:41:59.870Z,32.35
2022-08-25T22:44:27.357Z,32.05
2022-08-25T22:46:55.085Z,31.65
2022-08-25T22:49:22.479Z,32.23
2022-08-25T22:51:50.021Z,31.54
2022-08-25T22:54:18.209Z,32.49
2022-08-25T22:56:45.841Z,31.49
2022-08-25T22:59:14.647Z,31.49
2022-08-25T23:01:45.777Z,32.22
2022-08-25T23:04:14.747Z,39.78
2022-08-25T23:06:42.374Z,44.68
2022-08-25T23:09:10.429Z,43.27
2022-08-25T23:11:38.992Z,41.21
2022-08-25T23:14:08.315Z,34.98
2022-08-25T23:16:38.786Z,36.52
2022-08-25T23:19:06.478Z,37.21
2022-08-25T23:21:53.240Z,36.38
2022-08-25T23:24:27.114Z,38.21
2022-08-25T23:26:58.584Z,36.88
2022-08-25T23:29:25.879Z,34.98
2022-08-25T23:31:53.677Z,34.06
2022-08-25T23:34:21.789Z,34.13
2022-08-25T23:36:49.493Z,35.12
2022-08-25T23:39:16.742Z,35.17
2022-08-25T23:41:44.570Z,34.77
2022-08-25T23:44:17.182Z,34.38
2022-08-25T23:46:47.272Z,32.94
2022-08-25T23:49:15.073Z,32.33
2022-08-25T23:51:46.550Z,34.21
2022-08-25T23:54:14.773Z,33.13
2022-08-25T23:56:52.382Z,34.95
2022-08-25T23:59:24.425Z,32.94
